sensor_id;sensor_type;location;lat;lon;timestamp;temperature;humidity
80937;DHT22;70395;51.382;7.074;2023-09-30T00:01:00;14.20;71.00
80937;DHT22;70395;51.382;7.074;2023-09-30T00:03:26;14.20;71.00
80937;DHT22;70395;51.382;7.074;2023-09-30T00:05:51;14.20;71.00
80937;DHT22;70395;51.382;7.074;2023-09-30T00:08:17;14.20;71.00
80937;DHT22;70395;51.382;7.074;2023-09-30T00:10:43;14.20;71.20
80937;DHT22;70395;51.382;7.074;2023-09-30T00:13:09;14.20;71.40
80937;DHT22;70395;51.382;7.074;2023-09-30T00:15:35;14.10;71.50
80937;DHT22;70395;51.382;7.074;2023-09-30T00:18:01;14.10;71.60
80937;DHT22;70395;51.382;7.074;2023-09-30T00:20:28;14.20;71.80
80937;DHT22;70395;51.382;7.074;2023-09-30T00:22:54;14.20;71.90
80937;DHT22;70395;51.382;7.074;2023-09-30T00:25:20;14.20;72.00
80937;DHT22;70395;51.382;7.074;2023-09-30T00:27:49;14.20;71.80
80937;DHT22;70395;51.382;7.074;2023-09-30T00:30:15;14.20;71.80
80937;DHT22;70395;51.382;7.074;2023-09-30T00:32:41;14.20;71.70
80937;DHT22;70395;51.382;7.074;2023-09-30T00:35:07;14.20;71.80
80937;DHT22;70395;51.382;7.074;2023-09-30T00:37:40;14.20;71.80
80937;DHT22;70395;51.382;7.074;2023-09-30T00:40:07;14.20;71.90
80937;DHT22;70395;51.382;7.074;2023-09-30T00:42:40;14.20;72.00
80937;DHT22;70395;51.382;7.074;2023-09-30T00:45:07;14.20;72.00
80937;DHT22;70395;51.382;7.074;2023-09-30T00:47:37;14.20;71.90
80937;DHT22;70395;51.382;7.074;2023-09-30T00:50:04;14.20;71.90
80937;DHT22;70395;51.382;7.074;2023-09-30T00:52:33;14.20;71.90
80937;DHT22;70395;51.382;7.074;2023-09-30T00:55:02;14.20;71.90
80937;DHT22;70395;51.382;7.074;2023-09-30T00:57:31;14.20;72.00
80937;DHT22;70395;51.382;7.074;2023-09-30T00:59:58;14.20;71.90
80937;DHT22;70395;51.382;7.074;2023-09-30T01:02:25;14.20;72.70
80937;DHT22;70395;51.382;7.074;2023-09-30T01:04:51;14.10;71.80
80937;DHT22;70395;51.382;7.074;2023-09-30T01:07:17;14.10;71.90
80937;DHT22;70395;51.382;7.074;2023-09-30T01:09:47;14.10;72.10
80937;DHT22;70395;51.382;7.074;2023-09-30T01:12:13;14.00;72.00
80937;DHT22;70395;51.382;7.074;2023-09-30T01:14:39;14.10;72.20
80937;DHT22;70395;51.382;7.074;2023-09-30T01:17:06;14.10;72.20
80937;DHT22;70395;51.382;7.074;2023-09-30T01:19:37;14.10;72.20
80937;DHT22;70395;51.382;7.074;2023-09-30T01:22:02;14.10;72.00
80937;DHT22;70395;51.382;7.074;2023-09-30T01:24:29;14.10;72.20
80937;DHT22;70395;51.382;7.074;2023-09-30T01:26:56;14.10;72.30
80937;DHT22;70395;51.382;7.074;2023-09-30T01:29:22;14.10;72.30
80937;DHT22;70395;51.382;7.074;2023-09-30T01:31:51;14.10;72.20
80937;DHT22;70395;51.382;7.074;2023-09-30T01:34:17;14.10;72.20
80937;DHT22;70395;51.382;7.074;2023-09-30T01:36:43;14.10;72.20
80937;DHT22;70395;51.382;7.074;2023-09-30T01:39:10;14.10;72.30
80937;DHT22;70395;51.382;7.074;2023-09-30T01:41:40;14.10;72.20
80937;DHT22;70395;51.382;7.074;2023-09-30T01:44:07;14.10;72.30
80937;DHT22;70395;51.382;7.074;2023-09-30T01:46:35;14.20;72.30
80937;DHT22;70395;51.382;7.074;2023-09-30T01:49:02;14.20;72.20
80937;DHT22;70395;51.382;7.074;2023-09-30T01:51:29;14.20;72.10
80937;DHT22;70395;51.382;7.074;2023-09-30T01:53:55;14.20;72.20
80937;DHT22;70395;51.382;7.074;2023-09-30T01:56:21;14.10;72.00
80937;DHT22;70395;51.382;7.074;2023-09-30T01:58:47;14.20;72.00
80937;DHT22;70395;51.382;7.074;2023-09-30T02:01:13;14.10;72.00
80937;DHT22;70395;51.382;7.074;2023-09-30T02:03:39;14.20;72.00
80937;DHT22;70395;51.382;7.074;2023-09-30T02:06:05;14.10;71.30
80937;DHT22;70395;51.382;7.074;2023-09-30T02:08:30;14.10;71.90
80937;DHT22;70395;51.382;7.074;2023-09-30T02:10:57;14.10;71.90
80937;DHT22;70395;51.382;7.074;2023-09-30T02:13:22;14.10;71.90
80937;DHT22;70395;51.382;7.074;2023-09-30T02:15:48;14.10;71.90
80937;DHT22;70395;51.382;7.074;2023-09-30T02:18:14;14.00;71.80
80937;DHT22;70395;51.382;7.074;2023-09-30T02:20:40;14.00;71.70
80937;DHT22;70395;51.382;7.074;2023-09-30T02:23:08;14.00;71.70
80937;DHT22;70395;51.382;7.074;2023-09-30T02:25:37;14.00;71.80
80937;DHT22;70395;51.382;7.074;2023-09-30T02:28:03;13.90;71.70
80937;DHT22;70395;51.382;7.074;2023-09-30T02:30:30;13.90;71.80
80937;DHT22;70395;51.382;7.074;2023-09-30T02:32:56;13.90;71.80
80937;DHT22;70395;51.382;7.074;2023-09-30T02:35:22;13.90;71.80
80937;DHT22;70395;51.382;7.074;2023-09-30T02:37:49;13.80;71.80
80937;DHT22;70395;51.382;7.074;2023-09-30T02:40:18;13.80;71.70
80937;DHT22;70395;51.382;7.074;2023-09-30T02:42:45;13.80;71.70
80937;DHT22;70395;51.382;7.074;2023-09-30T02:45:12;13.80;71.80
80937;DHT22;70395;51.382;7.074;2023-09-30T02:47:39;13.70;71.90
80937;DHT22;70395;51.382;7.074;2023-09-30T02:50:07;13.70;71.90
80937;DHT22;70395;51.382;7.074;2023-09-30T02:52:34;13.70;72.00
80937;DHT22;70395;51.382;7.074;2023-09-30T02:55:00;13.70;71.90
80937;DHT22;70395;51.382;7.074;2023-09-30T02:57:26;13.60;71.90
80937;DHT22;70395;51.382;7.074;2023-09-30T02:59:55;13.60;71.90
80937;DHT22;70395;51.382;7.074;2023-09-30T03:02:21;13.60;72.00
80937;DHT22;70395;51.382;7.074;2023-09-30T03:04:48;13.50;71.90
80937;DHT22;70395;51.382;7.074;2023-09-30T03:07:15;13.60;72.10
80937;DHT22;70395;51.382;7.074;2023-09-30T03:09:41;13.50;72.00
80937;DHT22;70395;51.382;7.074;2023-09-30T03:12:07;13.50;72.00
80937;DHT22;70395;51.382;7.074;2023-09-30T03:14:34;13.50;72.20
80937;DHT22;70395;51.382;7.074;2023-09-30T03:17:00;13.50;72.20
80937;DHT22;70395;51.382;7.074;2023-09-30T03:19:26;13.40;72.00
80937;DHT22;70395;51.382;7.074;2023-09-30T03:21:52;13.40;72.00
80937;DHT22;70395;51.382;7.074;2023-09-30T03:24:18;13.40;72.00
80937;DHT22;70395;51.382;7.074;2023-09-30T03:26:44;13.40;72.00
80937;DHT22;70395;51.382;7.074;2023-09-30T03:29:09;13.40;72.00
80937;DHT22;70395;51.382;7.074;2023-09-30T03:31:36;13.40;72.10
80937;DHT22;70395;51.382;7.074;2023-09-30T03:34:05;13.30;72.00
80937;DHT22;70395;51.382;7.074;2023-09-30T03:36:31;13.40;72.30
80937;DHT22;70395;51.382;7.074;2023-09-30T03:38:57;13.30;72.10
80937;DHT22;70395;51.382;7.074;2023-09-30T03:41:30;13.30;72.10
80937;DHT22;70395;51.382;7.074;2023-09-30T03:43:56;13.30;72.10
80937;DHT22;70395;51.382;7.074;2023-09-30T03:46:22;13.30;72.10
80937;DHT22;70395;51.382;7.074;2023-09-30T03:48:48;13.20;72.00
80937;DHT22;70395;51.382;7.074;2023-09-30T03:51:14;13.20;72.20
80937;DHT22;70395;51.382;7.074;2023-09-30T03:53:49;13.20;72.40
80937;DHT22;70395;51.382;7.074;2023-09-30T03:56:15;13.20;72.80
80937;DHT22;70395;51.382;7.074;2023-09-30T03:58:42;13.20;72.40
80937;DHT22;70395;51.382;7.074;2023-09-30T04:01:09;13.20;72.40
80937;DHT22;70395;51.382;7.074;2023-09-30T04:03:42;13.20;72.50
80937;DHT22;70395;51.382;7.074;2023-09-30T04:06:09;13.20;72.40
80937;DHT22;70395;51.382;7.074;2023-09-30T04:08:35;13.10;72.30
80937;DHT22;70395;51.382;7.074;2023-09-30T04:11:01;13.20;72.40
80937;DHT22;70395;51.382;7.074;2023-09-30T04:13:28;13.10;72.20
80937;DHT22;70395;51.382;7.074;2023-09-30T04:15:55;13.10;72.10
80937;DHT22;70395;51.382;7.074;2023-09-30T04:18:23;13.10;72.10
80937;DHT22;70395;51.382;7.074;2023-09-30T04:20:52;13.10;72.10
80937;DHT22;70395;51.382;7.074;2023-09-30T04:23:18;13.10;72.10
80937;DHT22;70395;51.382;7.074;2023-09-30T04:25:46;13.10;72.00
80937;DHT22;70395;51.382;7.074;2023-09-30T04:28:15;13.00;72.00
80937;DHT22;70395;51.382;7.074;2023-09-30T04:30:45;13.00;72.10
80937;DHT22;70395;51.382;7.074;2023-09-30T04:33:12;13.00;72.00
80937;DHT22;70395;51.382;7.074;2023-09-30T04:35:38;13.00;72.00
80937;DHT22;70395;51.382;7.074;2023-09-30T04:38:04;12.90;72.00
80937;DHT22;70395;51.382;7.074;2023-09-30T04:40:30;12.90;72.20
80937;DHT22;70395;51.382;7.074;2023-09-30T04:42:58;12.90;72.30
80937;DHT22;70395;51.382;7.074;2023-09-30T04:45:27;12.90;72.40
80937;DHT22;70395;51.382;7.074;2023-09-30T04:47:53;13.00;72.50
80937;DHT22;70395;51.382;7.074;2023-09-30T04:50:21;12.90;72.30
80937;DHT22;70395;51.382;7.074;2023-09-30T04:52:51;12.90;72.20
80937;DHT22;70395;51.382;7.074;2023-09-30T04:55:17;12.90;72.40
80937;DHT22;70395;51.382;7.074;2023-09-30T04:57:47;12.80;72.10
80937;DHT22;70395;51.382;7.074;2023-09-30T05:00:17;12.80;72.20
80937;DHT22;70395;51.382;7.074;2023-09-30T05:02:45;12.80;72.30
80937;DHT22;70395;51.382;7.074;2023-09-30T05:05:11;12.80;72.30
80937;DHT22;70395;51.382;7.074;2023-09-30T05:07:37;12.80;72.30
80937;DHT22;70395;51.382;7.074;2023-09-30T05:10:03;12.80;72.30
80937;DHT22;70395;51.382;7.074;2023-09-30T05:12:36;12.80;72.20
80937;DHT22;70395;51.382;7.074;2023-09-30T05:15:03;12.70;72.10
80937;DHT22;70395;51.382;7.074;2023-09-30T05:17:33;12.70;72.10
80937;DHT22;70395;51.382;7.074;2023-09-30T05:19:59;12.70;72.30
80937;DHT22;70395;51.382;7.074;2023-09-30T05:22:25;12.70;72.50
80937;DHT22;70395;51.382;7.074;2023-09-30T05:24:51;12.70;72.50
80937;DHT22;70395;51.382;7.074;2023-09-30T05:27:18;12.70;72.60
80937;DHT22;70395;51.382;7.074;2023-09-30T05:29:44;12.70;72.60
80937;DHT22;70395;51.382;7.074;2023-09-30T05:32:10;12.70;72.60
80937;DHT22;70395;51.382;7.074;2023-09-30T05:34:36;12.70;72.70
80937;DHT22;70395;51.382;7.074;2023-09-30T05:37:04;12.70;72.70
80937;DHT22;70395;51.382;7.074;2023-09-30T05:39:30;12.70;72.80
80937;DHT22;70395;51.382;7.074;2023-09-30T05:41:57;12.70;72.70
80937;DHT22;70395;51.382;7.074;2023-09-30T05:44:23;12.70;72.70
80937;DHT22;70395;51.382;7.074;2023-09-30T05:46:51;12.60;72.50
80937;DHT22;70395;51.382;7.074;2023-09-30T05:49:17;12.70;72.50
80937;DHT22;70395;51.382;7.074;2023-09-30T05:51:44;12.60;72.40
80937;DHT22;70395;51.382;7.074;2023-09-30T05:54:12;12.60;72.50
80937;DHT22;70395;51.382;7.074;2023-09-30T05:56:38;12.60;72.60
80937;DHT22;70395;51.382;7.074;2023-09-30T05:59:05;12.70;72.70
80937;DHT22;70395;51.382;7.074;2023-09-30T06:01:32;12.60;72.60
80937;DHT22;70395;51.382;7.074;2023-09-30T06:03:59;12.60;72.70
80937;DHT22;70395;51.382;7.074;2023-09-30T06:06:26;12.60;73.10
80937;DHT22;70395;51.382;7.074;2023-09-30T06:08:58;12.70;73.90
80937;DHT22;70395;51.382;7.074;2023-09-30T06:11:24;12.70;74.30
80937;DHT22;70395;51.382;7.074;2023-09-30T06:13:57;12.80;74.40
80937;DHT22;70395;51.382;7.074;2023-09-30T06:16:27;12.90;74.50
80937;DHT22;70395;51.382;7.074;2023-09-30T06:18:54;13.10;74.40
80937;DHT22;70395;51.382;7.074;2023-09-30T06:21:24;13.20;74.00
80937;DHT22;70395;51.382;7.074;2023-09-30T06:23:54;13.50;73.80
80937;DHT22;70395;51.382;7.074;2023-09-30T06:26:21;13.70;73.60
80937;DHT22;70395;51.382;7.074;2023-09-30T06:28:47;13.90;73.40
80937;DHT22;70395;51.382;7.074;2023-09-30T06:31:14;14.20;73.10
80937;DHT22;70395;51.382;7.074;2023-09-30T06:33:41;14.50;72.90
80937;DHT22;70395;51.382;7.074;2023-09-30T06:36:11;14.70;73.40
80937;DHT22;70395;51.382;7.074;2023-09-30T06:38:40;15.00;72.60
80937;DHT22;70395;51.382;7.074;2023-09-30T06:41:15;15.30;72.50
80937;DHT22;70395;51.382;7.074;2023-09-30T06:43:42;15.60;72.00
80937;DHT22;70395;51.382;7.074;2023-09-30T06:46:08;15.90;71.80
80937;DHT22;70395;51.382;7.074;2023-09-30T06:48:38;16.20;71.20
80937;DHT22;70395;51.382;7.074;2023-09-30T06:51:07;16.50;70.90
80937;DHT22;70395;51.382;7.074;2023-09-30T06:53:33;16.80;70.90
80937;DHT22;70395;51.382;7.074;2023-09-30T06:55:59;17.10;70.20
80937;DHT22;70395;51.382;7.074;2023-09-30T06:58:25;17.50;70.50
80937;DHT22;70395;51.382;7.074;2023-09-30T07:00:51;17.80;70.10
80937;DHT22;70395;51.382;7.074;2023-09-30T07:03:21;18.10;69.40
80937;DHT22;70395;51.382;7.074;2023-09-30T07:05:46;18.40;68.80
80937;DHT22;70395;51.382;7.074;2023-09-30T07:08:18;18.70;68.60
80937;DHT22;70395;51.382;7.074;2023-09-30T07:10:46;19.00;68.60
80937;DHT22;70395;51.382;7.074;2023-09-30T07:13:15;19.30;67.20
80937;DHT22;70395;51.382;7.074;2023-09-30T07:15:42;19.50;66.70
80937;DHT22;70395;51.382;7.074;2023-09-30T07:18:08;19.80;65.80
80937;DHT22;70395;51.382;7.074;2023-09-30T07:20:34;20.00;65.30
80937;DHT22;70395;51.382;7.074;2023-09-30T07:23:00;20.30;65.10
80937;DHT22;70395;51.382;7.074;2023-09-30T07:25:27;20.50;64.50
80937;DHT22;70395;51.382;7.074;2023-09-30T07:27:53;20.80;64.00
80937;DHT22;70395;51.382;7.074;2023-09-30T07:30:19;21.00;63.80
80937;DHT22;70395;51.382;7.074;2023-09-30T07:32:45;21.30;63.10
80937;DHT22;70395;51.382;7.074;2023-09-30T07:35:12;21.50;62.60
80937;DHT22;70395;51.382;7.074;2023-09-30T07:37:41;21.80;62.00
80937;DHT22;70395;51.382;7.074;2023-09-30T07:40:08;22.10;61.80
80937;DHT22;70395;51.382;7.074;2023-09-30T07:42:36;22.30;61.00
80937;DHT22;70395;51.382;7.074;2023-09-30T07:45:02;22.60;60.40
80937;DHT22;70395;51.382;7.074;2023-09-30T07:47:30;22.80;59.70
80937;DHT22;70395;51.382;7.074;2023-09-30T07:49:58;23.10;59.40
80937;DHT22;70395;51.382;7.074;2023-09-30T07:52:24;23.40;58.80
80937;DHT22;70395;51.382;7.074;2023-09-30T07:54:51;23.70;58.10
80937;DHT22;70395;51.382;7.074;2023-09-30T07:57:17;23.90;57.50
80937;DHT22;70395;51.382;7.074;2023-09-30T07:59:43;24.10;56.90
80937;DHT22;70395;51.382;7.074;2023-09-30T08:02:09;24.40;56.60
80937;DHT22;70395;51.382;7.074;2023-09-30T08:04:34;24.60;56.40
80937;DHT22;70395;51.382;7.074;2023-09-30T08:07:00;24.80;55.60
80937;DHT22;70395;51.382;7.074;2023-09-30T08:09:26;25.10;55.40
80937;DHT22;70395;51.382;7.074;2023-09-30T08:11:55;25.30;54.50
80937;DHT22;70395;51.382;7.074;2023-09-30T08:14:21;25.60;53.40
80937;DHT22;70395;51.382;7.074;2023-09-30T08:16:47;25.80;53.40
80937;DHT22;70395;51.382;7.074;2023-09-30T08:19:14;26.00;53.30
80937;DHT22;70395;51.382;7.074;2023-09-30T08:21:40;26.20;52.20
80937;DHT22;70395;51.382;7.074;2023-09-30T08:24:06;26.40;51.70
80937;DHT22;70395;51.382;7.074;2023-09-30T08:26:33;26.70;51.40
80937;DHT22;70395;51.382;7.074;2023-09-30T08:29:01;26.90;50.70
80937;DHT22;70395;51.382;7.074;2023-09-30T08:31:26;27.00;50.50
80937;DHT22;70395;51.382;7.074;2023-09-30T08:33:52;27.20;50.60
80937;DHT22;70395;51.382;7.074;2023-09-30T08:36:18;27.40;49.90
80937;DHT22;70395;51.382;7.074;2023-09-30T08:38:44;27.50;49.30
80937;DHT22;70395;51.382;7.074;2023-09-30T08:41:10;27.60;48.60
80937;DHT22;70395;51.382;7.074;2023-09-30T08:43:39;27.70;48.20
80937;DHT22;70395;51.382;7.074;2023-09-30T08:46:06;27.90;47.60
80937;DHT22;70395;51.382;7.074;2023-09-30T08:48:33;28.00;47.50
80937;DHT22;70395;51.382;7.074;2023-09-30T08:51:00;28.00;47.30
80937;DHT22;70395;51.382;7.074;2023-09-30T08:53:28;28.10;46.50
80937;DHT22;70395;51.382;7.074;2023-09-30T08:55:56;28.20;46.50
80937;DHT22;70395;51.382;7.074;2023-09-30T08:58:28;28.30;46.00
80937;DHT22;70395;51.382;7.074;2023-09-30T09:00:55;28.30;45.60
80937;DHT22;70395;51.382;7.074;2023-09-30T09:03:28;28.40;46.10
80937;DHT22;70395;51.382;7.074;2023-09-30T09:05:58;28.40;45.80
80937;DHT22;70395;51.382;7.074;2023-09-30T09:08:25;28.50;45.90
80937;DHT22;70395;51.382;7.074;2023-09-30T09:10:56;28.60;46.20
80937;DHT22;70395;51.382;7.074;2023-09-30T09:13:24;28.70;45.30
80937;DHT22;70395;51.382;7.074;2023-09-30T09:16:06;28.70;45.00
80937;DHT22;70395;51.382;7.074;2023-09-30T09:18:35;28.70;44.10
80937;DHT22;70395;51.382;7.074;2023-09-30T09:21:23;28.60;44.40
80937;DHT22;70395;51.382;7.074;2023-09-30T09:23:51;28.40;44.60
80937;DHT22;70395;51.382;7.074;2023-09-30T09:26:28;28.40;45.00
80937;DHT22;70395;51.382;7.074;2023-09-30T09:28:58;28.30;44.10
80937;DHT22;70395;51.382;7.074;2023-09-30T09:31:28;28.40;44.80
80937;DHT22;70395;51.382;7.074;2023-09-30T09:33:55;28.50;45.10
80937;DHT22;70395;51.382;7.074;2023-09-30T09:36:43;28.70;45.00
80937;DHT22;70395;51.382;7.074;2023-09-30T09:39:11;28.90;44.00
80937;DHT22;70395;51.382;7.074;2023-09-30T09:41:51;29.20;43.90
80937;DHT22;70395;51.382;7.074;2023-09-30T09:44:22;29.50;43.70
80937;DHT22;70395;51.382;7.074;2023-09-30T09:46:53;29.70;42.70
80937;DHT22;70395;51.382;7.074;2023-09-30T09:49:20;30.00;43.20
80937;DHT22;70395;51.382;7.074;2023-09-30T09:51:47;30.30;42.30
80937;DHT22;70395;51.382;7.074;2023-09-30T09:54:15;30.40;41.80
80937;DHT22;70395;51.382;7.074;2023-09-30T09:56:45;30.40;41.00
80937;DHT22;70395;51.382;7.074;2023-09-30T09:59:14;30.10;40.70
80937;DHT22;70395;51.382;7.074;2023-09-30T10:01:41;29.80;40.40
80937;DHT22;70395;51.382;7.074;2023-09-30T10:04:08;29.60;41.00
80937;DHT22;70395;51.382;7.074;2023-09-30T10:06:37;29.50;41.30
80937;DHT22;70395;51.382;7.074;2023-09-30T10:09:10;29.50;40.50
80937;DHT22;70395;51.382;7.074;2023-09-30T10:11:40;29.50;40.60
80937;DHT22;70395;51.382;7.074;2023-09-30T10:14:06;29.70;40.80
80937;DHT22;70395;51.382;7.074;2023-09-30T10:16:46;29.90;40.80
80937;DHT22;70395;51.382;7.074;2023-09-30T10:19:17;30.10;40.90
80937;DHT22;70395;51.382;7.074;2023-09-30T10:24:49;30.30;40.40
80937;DHT22;70395;51.382;7.074;2023-09-30T10:35:42;30.20;38.30
80937;DHT22;70395;51.382;7.074;2023-09-30T10:40:48;30.60;36.90
80937;DHT22;70395;51.382;7.074;2023-09-30T10:43:31;30.80;37.60
80937;DHT22;70395;51.382;7.074;2023-09-30T10:45:59;31.10;36.80
80937;DHT22;70395;51.382;7.074;2023-09-30T10:50:55;31.50;36.30
80937;DHT22;70395;51.382;7.074;2023-09-30T10:53:26;31.70;36.70
80937;DHT22;70395;51.382;7.074;2023-09-30T10:55:56;31.80;36.00
80937;DHT22;70395;51.382;7.074;2023-09-30T11:01:06;31.90;34.10
80937;DHT22;70395;51.382;7.074;2023-09-30T11:03:32;31.90;34.70
80937;DHT22;70395;51.382;7.074;2023-09-30T11:05:58;32.00;35.20
80937;DHT22;70395;51.382;7.074;2023-09-30T11:08:24;32.00;35.50
80937;DHT22;70395;51.382;7.074;2023-09-30T11:10:53;32.10;35.50
80937;DHT22;70395;51.382;7.074;2023-09-30T11:13:20;32.10;34.40
80937;DHT22;70395;51.382;7.074;2023-09-30T11:15:46;31.90;34.10
80937;DHT22;70395;51.382;7.074;2023-09-30T11:20:44;31.10;34.80
80937;DHT22;70395;51.382;7.074;2023-09-30T11:23:13;30.60;35.50
80937;DHT22;70395;51.382;7.074;2023-09-30T11:25:41;30.20;35.30
80937;DHT22;70395;51.382;7.074;2023-09-30T11:28:17;29.90;36.70
80937;DHT22;70395;51.382;7.074;2023-09-30T11:31:00;29.50;36.80
80937;DHT22;70395;51.382;7.074;2023-09-30T11:33:31;29.20;37.40
80937;DHT22;70395;51.382;7.074;2023-09-30T11:36:03;29.10;37.90
80937;DHT22;70395;51.382;7.074;2023-09-30T11:38:32;29.10;38.00
80937;DHT22;70395;51.382;7.074;2023-09-30T11:41:05;29.40;38.70
80937;DHT22;70395;51.382;7.074;2023-09-30T11:43:35;29.60;38.10
80937;DHT22;70395;51.382;7.074;2023-09-30T11:46:08;30.00;37.50
80937;DHT22;70395;51.382;7.074;2023-09-30T11:51:26;30.70;36.90
80937;DHT22;70395;51.382;7.074;2023-09-30T11:53:54;31.00;36.30
80937;DHT22;70395;51.382;7.074;2023-09-30T11:56:22;31.30;35.70
80937;DHT22;70395;51.382;7.074;2023-09-30T11:58:53;31.40;35.30
80937;DHT22;70395;51.382;7.074;2023-09-30T12:01:20;31.30;34.20
80937;DHT22;70395;51.382;7.074;2023-09-30T12:03:48;31.10;33.80
80937;DHT22;70395;51.382;7.074;2023-09-30T12:06:14;30.80;34.00
80937;DHT22;70395;51.382;7.074;2023-09-30T12:08:42;30.50;34.40
80937;DHT22;70395;51.382;7.074;2023-09-30T12:11:08;30.30;34.40
80937;DHT22;70395;51.382;7.074;2023-09-30T12:13:38;30.40;35.90
80937;DHT22;70395;51.382;7.074;2023-09-30T12:16:04;30.40;35.80
80937;DHT22;70395;51.382;7.074;2023-09-30T12:18:30;30.50;35.30
80937;DHT22;70395;51.382;7.074;2023-09-30T12:20:56;30.60;33.80
80937;DHT22;70395;51.382;7.074;2023-09-30T12:23:22;30.70;34.40
80937;DHT22;70395;51.382;7.074;2023-09-30T12:25:48;30.90;34.20
80937;DHT22;70395;51.382;7.074;2023-09-30T12:28:14;31.00;33.90
80937;DHT22;70395;51.382;7.074;2023-09-30T12:30:40;31.20;33.80
80937;DHT22;70395;51.382;7.074;2023-09-30T12:33:07;31.50;33.80
80937;DHT22;70395;51.382;7.074;2023-09-30T12:35:33;31.70;33.80
80937;DHT22;70395;51.382;7.074;2023-09-30T12:37:59;31.80;33.70
80937;DHT22;70395;51.382;7.074;2023-09-30T12:40:25;32.00;33.10
80937;DHT22;70395;51.382;7.074;2023-09-30T12:42:51;32.20;32.40
80937;DHT22;70395;51.382;7.074;2023-09-30T12:45:17;32.30;32.40
80937;DHT22;70395;51.382;7.074;2023-09-30T12:47:44;32.40;31.90
80937;DHT22;70395;51.382;7.074;2023-09-30T12:50:11;32.50;32.70
80937;DHT22;70395;51.382;7.074;2023-09-30T12:52:37;32.50;31.80
80937;DHT22;70395;51.382;7.074;2023-09-30T12:55:04;32.50;31.60
80937;DHT22;70395;51.382;7.074;2023-09-30T12:57:31;32.40;31.40
80937;DHT22;70395;51.382;7.074;2023-09-30T12:59:57;32.40;31.20
80937;DHT22;70395;51.382;7.074;2023-09-30T13:02:23;32.40;31.60
80937;DHT22;70395;51.382;7.074;2023-09-30T13:04:49;32.40;32.50
80937;DHT22;70395;51.382;7.074;2023-09-30T13:07:15;32.30;32.00
80937;DHT22;70395;51.382;7.074;2023-09-30T13:09:41;32.20;32.10
80937;DHT22;70395;51.382;7.074;2023-09-30T13:12:08;32.10;32.70
80937;DHT22;70395;51.382;7.074;2023-09-30T13:14:34;32.00;32.60
80937;DHT22;70395;51.382;7.074;2023-09-30T13:17:00;31.80;32.60
80937;DHT22;70395;51.382;7.074;2023-09-30T13:19:29;31.70;32.10
80937;DHT22;70395;51.382;7.074;2023-09-30T13:21:55;31.50;31.80
80937;DHT22;70395;51.382;7.074;2023-09-30T13:24:22;31.40;32.30
80937;DHT22;70395;51.382;7.074;2023-09-30T13:26:48;31.20;32.30
80937;DHT22;70395;51.382;7.074;2023-09-30T13:29:15;30.90;32.40
80937;DHT22;70395;51.382;7.074;2023-09-30T13:31:42;30.70;32.90
80937;DHT22;70395;51.382;7.074;2023-09-30T13:34:08;30.50;33.40
80937;DHT22;70395;51.382;7.074;2023-09-30T13:36:35;30.40;33.70
80937;DHT22;70395;51.382;7.074;2023-09-30T13:39:01;30.20;33.60
80937;DHT22;70395;51.382;7.074;2023-09-30T13:41:27;30.10;34.20
80937;DHT22;70395;51.382;7.074;2023-09-30T13:43:53;29.90;34.80
80937;DHT22;70395;51.382;7.074;2023-09-30T13:46:18;29.80;35.40
80937;DHT22;70395;51.382;7.074;2023-09-30T13:48:47;29.70;35.30
80937;DHT22;70395;51.382;7.074;2023-09-30T13:51:16;29.60;34.40
80937;DHT22;70395;51.382;7.074;2023-09-30T13:53:42;29.50;34.20
80937;DHT22;70395;51.382;7.074;2023-09-30T13:56:08;29.40;35.10
80937;DHT22;70395;51.382;7.074;2023-09-30T13:58:36;29.40;36.20
80937;DHT22;70395;51.382;7.074;2023-09-30T14:01:02;29.30;36.10
80937;DHT22;70395;51.382;7.074;2023-09-30T14:03:29;29.20;35.90
80937;DHT22;70395;51.382;7.074;2023-09-30T14:05:55;29.10;35.70
80937;DHT22;70395;51.382;7.074;2023-09-30T14:08:24;29.00;35.90
80937;DHT22;70395;51.382;7.074;2023-09-30T14:10:50;28.80;35.60
80937;DHT22;70395;51.382;7.074;2023-09-30T14:13:19;28.60;35.70
80937;DHT22;70395;51.382;7.074;2023-09-30T14:15:45;28.40;35.50
80937;DHT22;70395;51.382;7.074;2023-09-30T14:18:12;28.10;36.30
80937;DHT22;70395;51.382;7.074;2023-09-30T14:20:39;27.90;37.20
80937;DHT22;70395;51.382;7.074;2023-09-30T14:23:05;27.60;37.50
80937;DHT22;70395;51.382;7.074;2023-09-30T14:25:31;27.30;38.20
80937;DHT22;70395;51.382;7.074;2023-09-30T14:27:57;27.10;38.90
80937;DHT22;70395;51.382;7.074;2023-09-30T14:30:25;26.80;38.30
80937;DHT22;70395;51.382;7.074;2023-09-30T14:32:51;26.50;39.00
80937;DHT22;70395;51.382;7.074;2023-09-30T14:35:17;26.30;39.60
80937;DHT22;70395;51.382;7.074;2023-09-30T14:37:43;26.00;40.00
80937;DHT22;70395;51.382;7.074;2023-09-30T14:40:09;25.80;40.40
80937;DHT22;70395;51.382;7.074;2023-09-30T14:42:39;25.50;41.20
80937;DHT22;70395;51.382;7.074;2023-09-30T14:45:05;25.30;41.90
80937;DHT22;70395;51.382;7.074;2023-09-30T14:47:32;25.10;42.40
80937;DHT22;70395;51.382;7.074;2023-09-30T14:49:58;24.90;43.20
80937;DHT22;70395;51.382;7.074;2023-09-30T14:52:27;24.60;43.40
80937;DHT22;70395;51.382;7.074;2023-09-30T14:54:54;24.40;43.80
80937;DHT22;70395;51.382;7.074;2023-09-30T14:57:20;24.20;44.40
80937;DHT22;70395;51.382;7.074;2023-09-30T14:59:47;24.10;44.80
80937;DHT22;70395;51.382;7.074;2023-09-30T15:02:13;24.00;45.00
80937;DHT22;70395;51.382;7.074;2023-09-30T15:04:40;23.90;45.20
80937;DHT22;70395;51.382;7.074;2023-09-30T15:07:06;23.80;45.30
80937;DHT22;70395;51.382;7.074;2023-09-30T15:09:31;23.80;45.50
80937;DHT22;70395;51.382;7.074;2023-09-30T15:11:57;23.70;45.70
80937;DHT22;70395;51.382;7.074;2023-09-30T15:14:23;23.60;45.10
80937;DHT22;70395;51.382;7.074;2023-09-30T15:16:49;23.50;46.00
80937;DHT22;70395;51.382;7.074;2023-09-30T15:19:15;23.40;46.50
80937;DHT22;70395;51.382;7.074;2023-09-30T15:21:41;23.30;46.60
80937;DHT22;70395;51.382;7.074;2023-09-30T15:24:07;23.30;46.70
80937;DHT22;70395;51.382;7.074;2023-09-30T15:26:34;23.20;46.70
80937;DHT22;70395;51.382;7.074;2023-09-30T15:29:00;23.10;46.80
80937;DHT22;70395;51.382;7.074;2023-09-30T15:31:27;23.00;47.00
80937;DHT22;70395;51.382;7.074;2023-09-30T15:33:57;23.00;47.40
80937;DHT22;70395;51.382;7.074;2023-09-30T15:36:24;22.90;47.20
80937;DHT22;70395;51.382;7.074;2023-09-30T15:38:51;22.70;47.20
80937;DHT22;70395;51.382;7.074;2023-09-30T15:41:22;22.70;48.20
80937;DHT22;70395;51.382;7.074;2023-09-30T15:43:49;22.60;48.90
80937;DHT22;70395;51.382;7.074;2023-09-30T15:46:15;22.50;48.70
80937;DHT22;70395;51.382;7.074;2023-09-30T15:48:41;22.30;48.30
80937;DHT22;70395;51.382;7.074;2023-09-30T15:51:07;22.20;48.70
80937;DHT22;70395;51.382;7.074;2023-09-30T15:53:32;22.10;49.00
80937;DHT22;70395;51.382;7.074;2023-09-30T15:56:01;22.00;49.10